Airport View

Enter ICAO identifier to see the current METAR for that AWOS.

KFNL for example

KPIT 030251Z 00000KT 8SM CLR M07/M11 A3040 RMK AO2 SLP321 T10721111 58001

3 Mar 2015 03:02

Phone: 412-472-0145

Other Area AWOS: KAGC - KBVI - KBTP - KAFJ

TAF AMD KPIT 030255Z 0303/0406 VRB03KT P6SM BKN150 FM031800 13005KT 5SM -FZRASN OVC020 FM032100 18008KT 2SM -RA BR OVC008 FM040000 20005KT 2SM -RA BR OVC005 WS020/23045KT